createdAt,value
2023-02-27T00:01:49.790Z,1.30
2023-02-27T00:04:16.260Z,1.38
2023-02-27T00:06:42.711Z,1.65
2023-02-27T00:09:09.198Z,1.63
2023-02-27T00:11:38.360Z,1.20
2023-02-27T00:14:04.799Z,1.52
2023-02-27T00:16:31.173Z,1.45
2023-02-27T00:19:01.486Z,1.35
2023-02-27T00:21:28.224Z,1.23
2023-02-27T00:23:55.312Z,1.48
2023-02-27T00:26:21.637Z,1.33
2023-02-27T00:28:48.032Z,1.45
2023-02-27T00:31:14.512Z,1.42
2023-02-27T00:33:40.979Z,1.48
2023-02-27T00:36:08.486Z,1.10
2023-02-27T00:38:35.414Z,1.20
2023-02-27T00:41:02.660Z,1.30
2023-02-27T00:43:29.099Z,1.30
2023-02-27T00:45:55.467Z,1.42
2023-02-27T00:48:21.859Z,1.42
2023-02-27T00:50:50.529Z,1.10
2023-02-27T00:53:16.907Z,1.35
2023-02-27T00:55:43.266Z,1.60
2023-02-27T00:58:09.623Z,1.10
2023-02-27T01:00:36.052Z,1.50
2023-02-27T01:03:02.465Z,1.45
2023-02-27T01:05:30.553Z,1.45
2023-02-27T01:07:56.893Z,1.33
2023-02-27T01:10:23.307Z,1.60
2023-02-27T01:12:49.705Z,1.15
2023-02-27T01:15:16.146Z,1.50
2023-02-27T01:17:42.620Z,1.30
2023-02-27T01:20:11.657Z,1.05
2023-02-27T01:22:38.403Z,1.27
2023-02-27T01:25:05.396Z,1.20
2023-02-27T01:27:31.825Z,1.20
2023-02-27T01:29:58.302Z,1.20
2023-02-27T01:32:24.840Z,1.35
2023-02-27T01:34:51.298Z,1.67
2023-02-27T01:37:18.070Z,1.52
2023-02-27T01:39:44.563Z,1.50
2023-02-27T01:42:22.777Z,1.20
2023-02-27T01:45:13.048Z,1.40
2023-02-27T01:47:42.431Z,1.45
2023-02-27T01:50:09.934Z,1.50
2023-02-27T01:52:37.174Z,1.30
2023-02-27T01:55:04.376Z,1.30
2023-02-27T01:57:30.874Z,1.30
2023-02-27T01:59:57.303Z,1.35
2023-02-27T02:02:27.004Z,1.25
2023-02-27T02:04:54.273Z,1.50
2023-02-27T02:07:21.281Z,1.42
2023-02-27T02:09:54.223Z,1.30
2023-02-27T02:12:25.639Z,1.30
2023-02-27T02:14:52.224Z,1.45
2023-02-27T02:17:28.846Z,1.27
2023-02-27T02:20:29.420Z,1.40
2023-02-27T02:23:04.764Z,1.08
2023-02-27T02:25:52.356Z,1.40
2023-02-27T02:28:26.533Z,1.50
2023-02-27T02:31:31.368Z,1.67
2023-02-27T02:34:00.668Z,1.50
2023-02-27T02:36:51.852Z,1.65
2023-02-27T02:39:34.204Z,1.40
2023-02-27T02:42:04.948Z,1.20
2023-02-27T02:44:43.322Z,1.48
2023-02-27T02:47:28.249Z,1.15
2023-02-27T02:50:26.758Z,1.33
2023-02-27T02:53:14.392Z,1.52
2023-02-27T02:55:47.904Z,1.27
2023-02-27T02:58:16.439Z,1.15
2023-02-27T03:00:50.964Z,1.13
2023-02-27T03:03:27.054Z,1.25
2023-02-27T03:06:03.104Z,1.38
2023-02-27T03:08:33.457Z,1.42
2023-02-27T03:11:03.488Z,1.30
2023-02-27T03:13:37.553Z,1.08
2023-02-27T03:16:20.960Z,1.20
2023-02-27T03:18:57.065Z,1.20
2023-02-27T03:21:35.421Z,1.30
2023-02-27T03:24:03.558Z,1.50
2023-02-27T03:26:33.850Z,1.17
2023-02-27T03:29:04.290Z,1.33
2023-02-27T03:31:48.985Z,1.20
2023-02-27T03:34:26.917Z,1.02
2023-02-27T03:37:14.715Z,1.30
2023-02-27T03:39:43.901Z,1.45
2023-02-27T03:42:16.067Z,1.38
2023-02-27T03:45:20.557Z,1.20
2023-02-27T03:47:47.078Z,1.30
2023-02-27T03:50:13.789Z,1.40
2023-02-27T03:52:40.590Z,1.13
2023-02-27T03:55:18.461Z,1.10
2023-02-27T03:57:46.814Z,1.10
2023-02-27T04:00:22.335Z,1.50
2023-02-27T04:02:51.542Z,1.27
2023-02-27T04:05:19.108Z,1.20
2023-02-27T04:08:25.995Z,1.20
2023-02-27T04:11:15.537Z,1.13
2023-02-27T04:13:54.837Z,1.10
2023-02-27T04:16:58.965Z,1.52
2023-02-27T04:19:43.649Z,1.42
2023-02-27T04:22:17.886Z,1.20
2023-02-27T04:25:09.878Z,1.20
2023-02-27T04:27:47.414Z,0.90
2023-02-27T04:30:28.259Z,1.13
2023-02-27T04:32:56.237Z,1.10
2023-02-27T04:35:32.022Z,1.20
2023-02-27T04:38:12.353Z,1.30
2023-02-27T04:40:52.936Z,1.40
2023-02-27T04:43:22.203Z,1.00
2023-02-27T04:45:49.580Z,1.40
2023-02-27T04:48:21.196Z,1.20
2023-02-27T04:50:53.718Z,1.33
2023-02-27T04:53:31.285Z,1.40
2023-02-27T04:56:02.504Z,1.33
2023-02-27T04:58:38.836Z,1.38
2023-02-27T05:01:11.810Z,1.55
2023-02-27T05:03:42.889Z,1.30
2023-02-27T05:06:10.812Z,1.10
2023-02-27T05:08:50.900Z,1.23
2023-02-27T05:11:44.564Z,1.20
2023-02-27T05:14:10.834Z,1.23
2023-02-27T05:17:04.841Z,1.10
2023-02-27T05:19:32.607Z,1.30
2023-02-27T05:22:36.478Z,1.33
2023-02-27T05:25:12.136Z,1.40
2023-02-27T05:27:46.973Z,1.25
2023-02-27T05:30:19.123Z,1.40
2023-02-27T05:32:57.800Z,1.58
2023-02-27T05:35:31.730Z,1.40
2023-02-27T05:38:16.952Z,1.30
2023-02-27T05:40:51.241Z,1.50
2023-02-27T05:43:23.311Z,1.20
2023-02-27T05:45:53.264Z,1.27
2023-02-27T05:48:24.719Z,1.30
2023-02-27T05:50:51.624Z,1.20
2023-02-27T05:53:19.373Z,1.35
2023-02-27T05:55:49.266Z,1.23
2023-02-27T05:58:20.214Z,1.42
2023-02-27T06:00:52.887Z,1.30
2023-02-27T06:03:19.473Z,1.50
2023-02-27T06:05:46.138Z,1.40
2023-02-27T06:08:12.563Z,1.42
2023-02-27T06:10:39.157Z,1.25
2023-02-27T06:13:05.625Z,1.73
2023-02-27T06:15:32.038Z,1.52
2023-02-27T06:17:58.366Z,1.52
2023-02-27T06:20:24.744Z,1.30
2023-02-27T06:22:51.236Z,1.20
2023-02-27T06:25:17.712Z,1.75
2023-02-27T06:27:44.140Z,1.40
2023-02-27T06:30:11.120Z,1.77
2023-02-27T06:32:37.492Z,1.38
2023-02-27T06:35:04.120Z,1.40
2023-02-27T06:37:30.476Z,1.35
2023-02-27T06:39:56.791Z,1.77
2023-02-27T06:42:23.173Z,1.52
2023-02-27T06:44:49.498Z,1.80
2023-02-27T06:47:15.995Z,1.55
2023-02-27T06:49:42.382Z,1.70
2023-02-27T06:52:08.740Z,1.50
2023-02-27T06:54:35.138Z,1.55
2023-02-27T06:57:01.605Z,1.60
2023-02-27T06:59:28.063Z,1.85
2023-02-27T07:01:54.536Z,1.92
2023-02-27T07:04:20.949Z,1.85
2023-02-27T07:07:34.421Z,1.80
2023-02-27T07:09:35.688Z,1.95
2023-02-27T07:12:06.247Z,1.63
2023-02-27T07:14:32.567Z,3.63
2023-02-27T07:16:59.366Z,3.30
2023-02-27T07:19:25.782Z,2.50
2023-02-27T07:21:52.150Z,2.17
2023-02-27T07:24:18.927Z,1.70
2023-02-27T07:26:45.256Z,1.98
2023-02-27T07:29:11.848Z,1.85
2023-02-27T07:31:38.275Z,1.70
2023-02-27T07:34:04.862Z,1.98
2023-02-27T07:36:31.573Z,1.88
2023-02-27T07:38:58.276Z,1.70
2023-02-27T07:41:30.705Z,1.75
2023-02-27T07:43:57.849Z,2.00
2023-02-27T07:46:27.360Z,1.90
2023-02-27T07:48:54.490Z,1.75
2023-02-27T07:51:20.866Z,2.05
2023-02-27T07:53:47.298Z,1.90
2023-02-27T07:56:13.918Z,1.73
2023-02-27T07:58:40.260Z,1.90
2023-02-27T08:01:06.615Z,1.75
2023-02-27T08:03:33.262Z,1.80
2023-02-27T08:06:02.096Z,1.50
2023-02-27T08:08:29.494Z,1.83
2023-02-27T08:10:55.858Z,1.85
2023-02-27T08:13:35.972Z,1.98
2023-02-27T08:16:09.026Z,1.70
2023-02-27T08:18:35.564Z,1.80
2023-02-27T08:21:04.822Z,2.00
2023-02-27T08:23:32.608Z,1.80
2023-02-27T08:25:59.091Z,1.90
2023-02-27T08:28:25.632Z,1.92
2023-02-27T08:30:52.037Z,2.20
2023-02-27T08:33:18.390Z,1.67
2023-02-27T08:35:44.849Z,1.73
2023-02-27T08:38:11.254Z,1.92
2023-02-27T08:40:37.586Z,2.17
2023-02-27T08:43:04.116Z,1.98
2023-02-27T08:45:30.552Z,1.90
2023-02-27T08:47:56.913Z,1.42
2023-02-27T08:50:23.317Z,1.92
2023-02-27T08:52:49.723Z,1.83
2023-02-27T08:55:16.104Z,1.85
2023-02-27T08:57:42.534Z,2.20
2023-02-27T09:00:10.449Z,1.83
2023-02-27T09:02:36.889Z,1.80
2023-02-27T09:05:03.500Z,1.75
2023-02-27T09:07:30.028Z,1.70
2023-02-27T09:09:56.609Z,1.85
2023-02-27T09:12:22.980Z,1.88
2023-02-27T09:14:49.466Z,1.80
2023-02-27T09:17:15.826Z,1.75
2023-02-27T09:19:42.498Z,1.90
2023-02-27T09:22:08.858Z,1.80
2023-02-27T09:24:35.250Z,2.00
2023-02-27T09:27:01.764Z,1.70
2023-02-27T09:29:28.368Z,1.67
2023-02-27T09:31:55.013Z,1.60
2023-02-27T09:34:21.456Z,1.85
2023-02-27T09:36:47.912Z,1.35
2023-02-27T09:39:14.327Z,1.85
2023-02-27T09:41:49.442Z,1.70
2023-02-27T09:44:46.355Z,1.65
2023-02-27T09:47:18.440Z,2.10
2023-02-27T09:50:06.558Z,2.08
2023-02-27T09:52:36.974Z,1.60
2023-02-27T09:55:08.671Z,1.90
2023-02-27T09:57:37.882Z,1.60
2023-02-27T10:00:07.580Z,1.60
2023-02-27T10:02:40.921Z,1.70
2023-02-27T10:05:32.192Z,1.50
2023-02-27T10:08:09.773Z,1.63
2023-02-27T10:10:45.005Z,1.75
2023-02-27T10:13:37.621Z,1.80
2023-02-27T10:16:05.016Z,1.65
2023-02-27T10:18:46.670Z,1.90
2023-02-27T10:21:17.021Z,1.42
2023-02-27T10:24:23.828Z,1.85
2023-02-27T10:26:52.810Z,1.77
2023-02-27T10:29:28.127Z,1.88
2023-02-27T10:32:24.850Z,1.60
2023-02-27T10:35:17.727Z,1.70
2023-02-27T10:37:49.463Z,1.70
2023-02-27T10:40:16.324Z,1.73
2023-02-27T10:42:44.587Z,1.40
2023-02-27T10:45:17.029Z,1.65
2023-02-27T10:47:44.162Z,1.50
2023-02-27T10:50:43.803Z,1.30
2023-02-27T10:53:24.840Z,1.10
2023-02-27T10:56:03.014Z,1.20
2023-02-27T10:58:34.977Z,1.33
2023-02-27T11:01:04.503Z,1.40
2023-02-27T11:03:37.720Z,1.02
2023-02-27T11:06:12.703Z,1.20
2023-02-27T11:08:39.364Z,1.10
2023-02-27T11:11:09.351Z,1.38
2023-02-27T11:13:43.152Z,1.20
2023-02-27T11:16:18.048Z,1.02
2023-02-27T11:18:47.662Z,1.25
2023-02-27T11:21:22.937Z,1.30
2023-02-27T11:24:04.297Z,1.15
2023-02-27T11:26:33.385Z,1.65
2023-02-27T11:29:05.558Z,1.40
2023-02-27T11:31:33.260Z,1.20
2023-02-27T11:34:00.984Z,1.58
2023-02-27T11:36:46.065Z,1.50
2023-02-27T11:39:37.577Z,1.42
2023-02-27T11:42:12.844Z,1.40
2023-02-27T11:44:50.664Z,1.10
2023-02-27T11:47:22.705Z,1.30
2023-02-27T11:50:08.761Z,1.27
2023-02-27T11:52:59.099Z,1.50
2023-02-27T11:55:27.951Z,1.38
2023-02-27T11:58:01.008Z,1.60
2023-02-27T12:00:32.992Z,1.57
2023-02-27T12:03:26.628Z,1.25
2023-02-27T12:06:00.969Z,1.58
2023-02-27T12:08:50.136Z,1.40
2023-02-27T12:11:23.922Z,1.25
2023-02-27T12:13:56.949Z,1.10
2023-02-27T12:16:34.101Z,1.10
2023-02-27T12:19:18.751Z,0.90
2023-02-27T12:21:49.831Z,1.08
2023-02-27T12:24:22.804Z,1.20
2023-02-27T12:26:56.049Z,1.05
2023-02-27T12:29:33.091Z,1.03
2023-02-27T12:32:03.355Z,1.15
2023-02-27T12:34:40.046Z,0.95
2023-02-27T12:37:12.423Z,1.02
2023-02-27T12:39:40.597Z,0.82
2023-02-27T12:42:25.295Z,1.20
2023-02-27T12:45:16.224Z,0.82
2023-02-27T12:48:05.476Z,0.90
2023-02-27T12:50:44.930Z,0.80
2023-02-27T12:53:32.963Z,1.27
2023-02-27T12:56:21.341Z,0.88
2023-02-27T12:59:06.759Z,0.93
2023-02-27T13:01:48.589Z,0.90
2023-02-27T13:04:48.832Z,0.93
2023-02-27T13:07:24.099Z,0.90
2023-02-27T13:09:54.620Z,1.00
2023-02-27T13:12:32.381Z,1.08
2023-02-27T13:15:17.196Z,0.82
2023-02-27T13:17:53.990Z,0.70
2023-02-27T13:20:39.364Z,0.90
2023-02-27T13:23:27.236Z,0.90
2023-02-27T13:25:54.847Z,0.90
2023-02-27T13:28:25.234Z,1.00
2023-02-27T13:31:10.206Z,0.93
2023-02-27T13:34:05.325Z,0.73
2023-02-27T13:36:59.000Z,0.80
2023-02-27T13:39:43.868Z,0.80
2023-02-27T13:42:25.265Z,0.90
2023-02-27T13:45:01.941Z,0.98
2023-02-27T13:47:31.169Z,0.93
2023-02-27T13:50:01.751Z,0.90
2023-02-27T13:52:29.504Z,0.82
2023-02-27T13:54:59.860Z,0.93
2023-02-27T13:57:33.565Z,0.87
2023-02-27T14:00:32.998Z,0.80
2023-02-27T14:03:22.051Z,0.75
2023-02-27T14:05:51.524Z,0.88
2023-02-27T14:08:24.684Z,0.90
2023-02-27T14:11:21.475Z,1.10
2023-02-27T14:13:51.066Z,0.80
2023-02-27T14:16:37.738Z,1.10
2023-02-27T14:19:24.188Z,0.90
2023-02-27T14:22:19.802Z,1.08
2023-02-27T14:25:02.498Z,1.05
2023-02-27T14:27:51.945Z,1.00
2023-02-27T14:30:32.113Z,0.80
2023-02-27T14:33:16.693Z,0.70
2023-02-27T14:35:46.277Z,0.70
2023-02-27T14:38:16.111Z,0.90
2023-02-27T14:41:05.500Z,0.90
2023-02-27T14:43:40.198Z,0.80
2023-02-27T14:46:28.837Z,0.80
2023-02-27T14:49:01.712Z,0.50
2023-02-27T14:51:30.900Z,1.08
2023-02-27T14:54:12.711Z,0.82
2023-02-27T14:56:39.273Z,0.75
2023-02-27T14:59:25.139Z,0.80
2023-02-27T15:01:53.308Z,0.88
2023-02-27T15:04:20.544Z,0.90
2023-02-27T15:06:51.809Z,1.08
2023-02-27T15:09:24.059Z,0.93
2023-02-27T15:12:03.589Z,0.90
2023-02-27T15:14:34.314Z,0.80
2023-02-27T15:17:00.684Z,0.75
2023-02-27T15:19:31.997Z,1.33
2023-02-27T15:22:00.557Z,1.02
2023-02-27T15:24:47.842Z,0.98
2023-02-27T15:27:18.749Z,1.00
2023-02-27T15:29:49.957Z,0.98
2023-02-27T15:32:28.933Z,1.10
2023-02-27T15:35:01.546Z,1.02
2023-02-27T15:37:30.438Z,1.00
2023-02-27T15:39:58.698Z,1.10
2023-02-27T15:42:28.430Z,1.00
2023-02-27T15:44:55.305Z,1.00
2023-02-27T15:47:25.024Z,0.90
2023-02-27T15:49:57.068Z,1.00
2023-02-27T15:52:25.321Z,0.93
2023-02-27T15:54:54.603Z,0.90
2023-02-27T15:57:22.973Z,1.05
2023-02-27T15:59:49.897Z,1.23
2023-02-27T16:02:20.609Z,1.00
2023-02-27T16:04:47.138Z,1.20
2023-02-27T16:07:17.480Z,1.05
2023-02-27T16:09:46.252Z,1.30
2023-02-27T16:12:28.091Z,1.10
2023-02-27T16:15:24.138Z,1.50
2023-02-27T16:18:07.671Z,1.00
2023-02-27T16:20:55.642Z,1.30
2023-02-27T16:23:27.703Z,1.33
2023-02-27T16:26:06.110Z,1.30
2023-02-27T16:28:49.816Z,1.20
2023-02-27T16:31:31.676Z,1.30
2023-02-27T16:34:01.041Z,1.20
2023-02-27T16:36:31.482Z,1.10
2023-02-27T16:38:58.142Z,1.13
2023-02-27T16:41:24.880Z,1.20
2023-02-27T16:43:53.026Z,1.17
2023-02-27T16:46:20.223Z,1.10
2023-02-27T16:48:50.906Z,1.15
2023-02-27T16:51:20.302Z,1.30
2023-02-27T16:53:47.876Z,1.35
2023-02-27T16:56:14.878Z,1.40
2023-02-27T16:58:41.309Z,1.45
2023-02-27T17:01:07.829Z,1.60
2023-02-27T17:03:34.526Z,1.63
2023-02-27T17:06:03.249Z,1.52
2023-02-27T17:08:30.564Z,1.63
2023-02-27T17:10:57.896Z,1.20
2023-02-27T17:13:24.838Z,1.20
2023-02-27T17:15:51.387Z,1.70
2023-02-27T17:18:17.705Z,1.30
2023-02-27T17:20:44.081Z,1.30
2023-02-27T17:23:13.412Z,1.10
2023-02-27T17:25:42.096Z,1.20
2023-02-27T17:28:09.000Z,1.30
2023-02-27T17:30:36.069Z,1.25
2023-02-27T17:33:04.258Z,1.27
2023-02-27T17:35:30.927Z,1.85
2023-02-27T17:37:57.629Z,1.50
2023-02-27T17:40:23.960Z,1.50
2023-02-27T17:42:50.289Z,1.70
2023-02-27T17:45:16.757Z,1.90
2023-02-27T17:47:43.675Z,2.78
2023-02-27T17:50:10.648Z,2.03
2023-02-27T17:52:37.333Z,2.22
2023-02-27T17:55:04.240Z,2.22
2023-02-27T17:57:30.772Z,2.45
2023-02-27T17:59:57.111Z,2.00
2023-02-27T18:02:23.551Z,2.63
2023-02-27T18:04:50.335Z,2.20
2023-02-27T18:07:16.746Z,2.40
2023-02-27T18:09:45.629Z,1.90
2023-02-27T18:12:12.258Z,2.10
2023-02-27T18:14:39.811Z,1.70
2023-02-27T18:17:12.751Z,1.50
2023-02-27T18:19:39.972Z,1.90
2023-02-27T18:22:06.386Z,1.52
2023-02-27T18:24:32.746Z,1.25
2023-02-27T18:26:59.085Z,1.42
2023-02-27T18:29:25.442Z,1.52
2023-02-27T18:31:53.971Z,1.52
2023-02-27T18:34:21.608Z,2.03
2023-02-27T18:36:48.070Z,1.55
2023-02-27T18:39:14.521Z,1.92
2023-02-27T18:41:40.996Z,2.33
2023-02-27T18:44:07.899Z,2.13
2023-02-27T18:46:34.980Z,2.30
2023-02-27T18:49:01.436Z,2.22
2023-02-27T18:51:28.082Z,2.22
2023-02-27T18:53:54.531Z,2.10
2023-02-27T18:56:23.762Z,2.20
2023-02-27T18:58:50.811Z,1.98
2023-02-27T19:01:28.114Z,2.13
2023-02-27T19:04:00.016Z,2.20
2023-02-27T19:06:27.694Z,2.00
2023-02-27T19:08:54.288Z,1.98
2023-02-27T19:11:34.526Z,1.85
2023-02-27T19:14:06.268Z,2.00
2023-02-27T19:16:33.259Z,2.22
2023-02-27T19:19:00.929Z,2.67
2023-02-27T19:21:27.869Z,2.72
2023-02-27T19:23:54.360Z,2.80
2023-02-27T19:26:20.930Z,2.85
2023-02-27T19:28:50.637Z,2.22
2023-02-27T19:31:17.185Z,2.40
2023-02-27T19:33:43.704Z,2.00
2023-02-27T19:36:13.572Z,1.98
2023-02-27T19:38:40.315Z,2.25
2023-02-27T19:41:09.031Z,2.25
2023-02-27T19:43:36.905Z,2.38
2023-02-27T19:46:07.880Z,2.58
2023-02-27T19:48:34.401Z,2.80
2023-02-27T19:51:05.814Z,3.03
2023-02-27T19:53:32.486Z,2.83
2023-02-27T19:56:10.406Z,2.47
2023-02-27T19:58:37.304Z,2.63
2023-02-27T20:01:04.391Z,2.50
2023-02-27T20:03:31.280Z,2.55
2023-02-27T20:05:57.778Z,2.70
2023-02-27T20:08:24.139Z,2.67
2023-02-27T20:10:55.329Z,2.88
2023-02-27T20:13:21.725Z,2.45
2023-02-27T20:16:07.113Z,2.58
2023-02-27T20:18:34.751Z,2.28
2023-02-27T20:21:10.167Z,1.90
2023-02-27T20:23:39.334Z,2.25
2023-02-27T20:26:20.518Z,1.75
2023-02-27T20:28:47.976Z,2.08
2023-02-27T20:31:16.237Z,2.05
2023-02-27T20:33:42.893Z,2.03
2023-02-27T20:36:10.257Z,2.17
2023-02-27T20:38:38.980Z,2.00
2023-02-27T20:41:07.199Z,1.95
2023-02-27T20:43:33.681Z,2.05
2023-02-27T20:46:05.492Z,2.15
2023-02-27T20:48:32.042Z,2.30
2023-02-27T20:51:19.852Z,2.40
2023-02-27T20:53:48.935Z,2.25
2023-02-27T20:56:15.455Z,2.40
2023-02-27T20:58:42.118Z,2.10
2023-02-27T21:01:10.258Z,2.42
2023-02-27T21:03:39.182Z,2.70
2023-02-27T21:06:10.434Z,2.90
2023-02-27T21:08:42.619Z,2.63
2023-02-27T21:11:22.033Z,2.50
2023-02-27T21:13:49.955Z,2.45
2023-02-27T21:16:17.972Z,2.22
2023-02-27T21:18:44.790Z,2.58
2023-02-27T21:21:16.577Z,2.65
2023-02-27T21:23:43.025Z,2.70
2023-02-27T21:26:20.180Z,3.22
2023-02-27T21:28:56.880Z,2.70
2023-02-27T21:31:25.116Z,2.90
2023-02-27T21:33:52.507Z,2.50
2023-02-27T21:36:24.681Z,2.35
2023-02-27T21:38:52.342Z,2.78
2023-02-27T21:41:18.664Z,2.47
2023-02-27T21:43:45.004Z,2.80
2023-02-27T21:46:12.484Z,3.03
2023-02-27T21:48:39.486Z,2.92
2023-02-27T21:51:06.693Z,3.20
2023-02-27T21:53:33.602Z,2.60
2023-02-27T21:56:08.258Z,3.53
2023-02-27T21:58:34.605Z,3.10
2023-02-27T22:01:01.332Z,2.90
2023-02-27T22:03:34.199Z,2.80
2023-02-27T22:06:01.848Z,2.80
2023-02-27T22:08:28.665Z,2.83
2023-02-27T22:10:58.871Z,3.00
2023-02-27T22:13:25.572Z,3.03
2023-02-27T22:15:52.441Z,2.55
2023-02-27T22:18:18.938Z,2.80
2023-02-27T22:20:45.333Z,2.13
2023-02-27T22:23:11.784Z,2.45
2023-02-27T22:25:38.292Z,2.67
2023-02-27T22:28:04.744Z,2.30
2023-02-27T22:30:31.209Z,2.67
2023-02-27T22:32:57.588Z,2.45
2023-02-27T22:35:24.030Z,2.55
2023-02-27T22:37:50.438Z,2.58
2023-02-27T22:40:20.399Z,2.75
2023-02-27T22:42:47.992Z,2.40
2023-02-27T22:45:15.101Z,2.50
2023-02-27T22:47:41.481Z,2.47
2023-02-27T22:50:08.258Z,2.45
2023-02-27T22:52:36.002Z,2.90
2023-02-27T22:55:03.352Z,2.78
2023-02-27T22:57:29.709Z,2.97
2023-02-27T22:59:56.140Z,3.20
2023-02-27T23:02:22.557Z,2.92
2023-02-27T23:04:48.975Z,2.95
2023-02-27T23:07:15.377Z,3.08
2023-02-27T23:09:42.284Z,3.35
2023-02-27T23:12:08.745Z,3.35
2023-02-27T23:14:35.179Z,3.53
2023-02-27T23:17:01.543Z,3.55
2023-02-27T23:19:27.924Z,3.50
2023-02-27T23:21:54.281Z,3.90
2023-02-27T23:24:20.656Z,3.50
2023-02-27T23:26:49.231Z,3.65
2023-02-27T23:29:15.728Z,3.90
2023-02-27T23:31:42.389Z,4.30
2023-02-27T23:34:09.785Z,3.75
2023-02-27T23:36:37.331Z,3.80
2023-02-27T23:39:04.784Z,3.47
2023-02-27T23:41:32.446Z,3.35
2023-02-27T23:43:58.881Z,3.70
2023-02-27T23:46:30.096Z,3.45
2023-02-27T23:48:58.308Z,3.50
2023-02-27T23:51:24.793Z,3.20
2023-02-27T23:53:51.380Z,3.35
2023-02-27T23:56:21.826Z,2.83
2023-02-27T23:58:53.138Z,3.50
